Time;durP1;ratioP1;P1;durP2;ratioP2;P2;SDS_P1;SDS_P2;PMS_P1;PMS_P2;Temp;Humidity;BMP_temperature;BMP_pressure;BME280_temperature;BME280_humidity;BME280_pressure;Samples;Min_cycle;Max_cycle;Signal;HPM_P1;HPM_P2
2021/06/21 00:00:29;;;;;;;2.55;1.50;;;;;;;23.16;36.62;100045.47;3575565;40;20048;-73
2021/06/21 00:02:57;;;;;;;3.10;2.05;;;;;;;23.11;36.70;100041.69;3578464;40;20283;-73
2021/06/21 00:05:26;;;;;;;3.60;2.03;;;;;;;23.07;37.07;100048.81;3576549;40;20068;-73
2021/06/21 00:07:56;;;;;;;2.97;2.00;;;;;;;23.03;37.01;100051.25;3573106;40;20063;-73
2021/06/21 00:10:24;;;;;;;3.13;1.95;;;;;;;22.96;37.19;100044.91;3576445;40;20065;-73
2021/06/21 00:12:53;;;;;;;2.85;2.10;;;;;;;22.89;37.34;100038.56;3579307;40;20053;-73
2021/06/21 00:15:25;;;;;;;4.18;2.28;;;;;;;22.82;37.06;100035.78;3577319;40;20053;-74
2021/06/21 00:17:54;;;;;;;3.17;2.20;;;;;;;22.74;37.54;100030.53;3578680;40;20100;-73
2021/06/21 00:20:23;;;;;;;3.55;2.40;;;;;;;22.67;37.67;100020.53;3573104;40;20135;-73
2021/06/21 00:22:53;;;;;;;3.33;2.47;;;;;;;22.58;38.42;100019.97;3578933;40;20048;-72
2021/06/21 00:25:24;;;;;;;3.13;2.10;;;;;;;22.50;38.75;100020.28;3578089;40;20089;-72
2021/06/21 00:27:53;;;;;;;3.80;2.38;;;;;;;22.40;38.28;100008.81;3578191;40;20049;-72
2021/06/21 00:30:22;;;;;;;3.17;2.17;;;;;;;22.38;38.75;100013.78;3575727;40;20380;-72
2021/06/21 00:32:51;;;;;;;3.53;2.08;;;;;;;22.34;39.05;100018.97;3574931;40;20405;-72
2021/06/21 00:35:20;;;;;;;2.97;2.30;;;;;;;22.32;39.14;100015.53;3573189;40;20060;-72
2021/06/21 00:37:51;;;;;;;3.00;2.00;;;;;;;22.29;39.00;100013.22;3572612;40;20037;-72
2021/06/21 00:40:20;;;;;;;3.35;2.25;;;;;;;22.26;39.46;100007.25;3575583;40;20041;-72
2021/06/21 00:42:50;;;;;;;4.10;2.55;;;;;;;22.25;39.42;100000.81;3578566;40;20114;-72
2021/06/21 00:45:21;;;;;;;3.65;2.67;;;;;;;22.19;39.79;100002.56;3574268;40;20053;-72
2021/06/21 00:47:53;;;;;;;3.85;2.80;;;;;;;22.15;39.74;100006.88;3577002;40;20085;-72
2021/06/21 00:50:22;;;;;;;5.18;3.10;;;;;;;22.11;39.59;99994.50;3573363;40;20060;-72
2021/06/21 00:52:54;;;;;;;4.00;2.85;;;;;;;22.08;40.64;99989.38;3578407;40;20040;-72
2021/06/21 00:55:23;;;;;;;5.15;3.45;;;;;;;21.99;40.34;99995.47;3574333;40;20049;-73
2021/06/21 00:57:54;;;;;;;4.28;2.95;;;;;;;21.98;40.40;99991.00;3578251;40;20134;-73
2021/06/21 01:00:25;;;;;;;5.95;3.45;;;;;;;21.91;40.62;99982.69;3583870;40;20139;-73
2021/06/21 01:02:53;;;;;;;4.43;3.22;;;;;;;21.85;40.80;99977.19;3578868;40;20146;-73
2021/06/21 01:05:24;;;;;;;4.88;3.45;;;;;;;21.82;40.89;99970.13;3578197;40;20032;-73
2021/06/21 01:07:53;;;;;;;4.10;3.10;;;;;;;21.76;41.20;99959.91;3574129;40;20083;-73
2021/06/21 01:10:24;;;;;;;4.00;3.10;;;;;;;21.73;41.04;99954.81;3570702;40;20085;-73
2021/06/21 01:13:15;;;;;;;5.07;3.90;;;;;;;21.66;41.78;99948.44;3571837;40;20045;-73
2021/06/21 01:15:51;;;;;;;5.10;3.63;;;;;;;21.64;41.31;99954.25;3577047;40;20472;-73
2021/06/21 01:18:27;;;;;;;6.13;4.38;;;;;;;21.59;42.37;99947.66;3577274;40;20490;-73
2021/06/21 01:21:25;;;;;;;4.75;3.63;;;;;;;21.55;42.47;99943.59;3568844;40;20114;-73
2021/06/21 01:24:15;;;;;;;5.38;3.80;;;;;;;21.49;43.03;99947.28;3572097;40;20049;-74
2021/06/21 01:26:46;;;;;;;5.57;4.18;;;;;;;21.47;41.94;99949.44;3576813;40;20049;-73
2021/06/21 01:29:47;;;;;;;5.73;3.80;;;;;;;21.38;42.57;99960.00;3577653;40;20047;-72
2021/06/21 01:32:26;;;;;;;6.53;4.65;;;;;;;21.42;43.89;99956.50;3574275;40;20299;-72
2021/06/21 01:34:58;;;;;;;6.18;4.85;;;;;;;21.39;44.00;99958.91;3575248;40;20081;-71
2021/06/21 01:37:27;;;;;;;6.90;4.97;;;;;;;21.33;43.61;99951.44;3576013;40;20049;-72
2021/06/21 01:39:59;;;;;;;7.10;5.28;;;;;;;21.36;43.92;99953.78;3578761;40;20059;-72
2021/06/21 01:42:28;;;;;;;6.55;5.13;;;;;;;21.31;44.13;99951.69;3577501;40;20055;-72
2021/06/21 01:45:01;;;;;;;6.35;5.28;;;;;;;21.34;45.21;99955.94;3578377;40;20049;-72
2021/06/21 01:47:48;;;;;;;7.40;5.40;;;;;;;21.34;44.45;99947.59;3573662;40;20052;-73
2021/06/21 01:50:19;;;;;;;7.72;6.10;;;;;;;21.32;44.38;99945.06;3577036;40;20401;-72
2021/06/21 01:53:10;;;;;;;6.10;5.18;;;;;;;21.29;44.33;99936.28;3577100;40;20041;-72
2021/06/21 01:56:01;;;;;;;6.43;5.22;;;;;;;21.24;45.14;99938.91;3569311;40;20065;-73
2021/06/21 01:58:53;;;;;;;7.07;4.60;;;;;;;21.18;45.57;99931.44;3577550;40;20089;-72
2021/06/21 02:01:37;;;;;;;7.15;5.35;;;;;;;21.12;45.15;99929.56;3575411;40;20053;-72
2021/06/21 02:04:30;;;;;;;7.20;6.03;;;;;;;21.03;46.32;99923.41;3575682;40;20057;-72
2021/06/21 02:07:21;;;;;;;7.32;5.03;;;;;;;20.90;45.35;99924.38;3573199;40;20056;-72
2021/06/21 02:10:10;;;;;;;6.03;4.30;;;;;;;20.82;45.64;99959.88;3581487;40;20057;-73
2021/06/21 02:12:52;;;;;;;6.80;4.95;;;;;;;20.74;45.91;99946.22;3573671;40;20072;-72
2021/06/21 02:15:42;;;;;;;6.80;5.25;;;;;;;20.65;46.11;99929.81;3576983;40;20048;-73
2021/06/21 02:18:31;;;;;;;6.20;5.15;;;;;;;20.62;46.64;99929.38;3570948;40;20053;-73
2021/06/21 02:21:23;;;;;;;5.82;4.45;;;;;;;20.56;46.66;99921.94;3576186;40;20039;-73
2021/06/21 02:24:14;;;;;;;10.00;5.90;;;;;;;20.51;47.26;99927.28;3573495;40;20545;-73
2021/06/21 02:27:03;;;;;;;6.72;5.45;;;;;;;20.45;47.00;99931.78;3574220;40;20055;-73
2021/06/21 02:29:55;;;;;;;7.55;5.72;;;;;;;20.45;47.04;99939.28;3573926;40;20126;-73
2021/06/21 02:32:45;;;;;;;6.28;4.80;;;;;;;20.45;47.41;99947.59;3578256;40;20057;-73
2021/06/21 02:35:33;;;;;;;6.93;4.80;;;;;;;20.46;47.87;99946.53;3575290;40;20122;-73
2021/06/21 02:38:23;;;;;;;6.28;4.70;;;;;;;20.51;47.81;99939.25;3575666;40;20049;-73
2021/06/21 02:41:11;;;;;;;5.88;4.68;;;;;;;20.51;47.87;99932.84;3575257;40;20425;-73
2021/06/21 02:43:59;;;;;;;5.13;4.00;;;;;;;20.53;47.07;99936.25;3570708;40;20045;-73
2021/06/21 02:46:47;;;;;;;5.43;4.60;;;;;;;20.54;47.31;99926.84;3575312;40;20093;-72
2021/06/21 02:49:36;;;;;;;6.47;5.55;;;;;;;20.55;47.49;99925.78;3575254;40;20213;-73
2021/06/21 02:52:32;;;;;;;6.35;5.18;;;;;;;20.58;48.37;99923.41;3575630;40;20364;-73
2021/06/21 02:55:23;;;;;;;6.15;5.03;;;;;;;20.58;48.35;99926.16;3568200;40;20061;-72
2021/06/21 02:58:15;;;;;;;5.72;4.47;;;;;;;20.57;48.20;99929.19;3576487;40;20083;-72
2021/06/21 03:01:06;;;;;;;6.53;5.13;;;;;;;20.59;48.62;99927.03;3571834;40;20041;-72
2021/06/21 03:03:56;;;;;;;5.63;4.75;;;;;;;20.58;47.93;99925.34;3574280;40;20401;-72
2021/06/21 03:06:46;;;;;;;5.65;4.95;;;;;;;20.57;47.98;99938.38;3576463;40;20427;-72
2021/06/21 03:09:37;;;;;;;5.68;4.32;;;;;;;20.59;47.71;99933.44;3578434;40;20087;-72
2021/06/21 03:12:29;;;;;;;5.43;4.38;;;;;;;20.60;48.40;99935.16;3578293;40;20119;-72
2021/06/21 03:14:58;;;;;;;5.43;4.20;;;;;;;20.59;48.04;99925.09;3577342;40;20061;-72
2021/06/21 03:17:28;;;;;;;5.55;4.53;;;;;;;20.63;48.02;99917.19;3572753;40;20069;-72
2021/06/21 03:19:56;;;;;;;6.57;4.97;;;;;;;20.65;48.32;99912.28;3579361;40;20405;-72
2021/06/21 03:22:26;;;;;;;6.22;5.05;;;;;;;20.67;48.25;99910.09;3576958;40;20104;-72
2021/06/21 03:24:56;;;;;;;7.25;5.68;;;;;;;20.70;48.68;99906.91;3578206;40;20044;-73
2021/06/21 03:27:31;;;;;;;5.95;4.93;;;;;;;20.74;50.03;99910.09;3577765;40;20123;-72
2021/06/21 03:30:02;;;;;;;6.20;4.93;;;;;;;20.72;48.97;99913.09;3579189;40;20409;-73
2021/06/21 03:32:33;;;;;;;6.15;5.00;;;;;;;20.75;48.81;99915.41;3577222;40;20048;-72
2021/06/21 03:35:05;;;;;;;5.57;4.68;;;;;;;20.75;48.38;99909.84;3579127;40;20047;-72
2021/06/21 03:37:33;;;;;;;5.87;4.77;;;;;;;20.74;48.84;99908.16;3579213;40;20044;-72
2021/06/21 03:40:02;;;;;;;6.47;4.63;;;;;;;20.77;48.75;99899.38;3577335;40;20664;-72
2021/06/21 03:42:32;;;;;;;7.00;5.32;;;;;;;20.82;48.73;99896.78;3579274;40;20055;-72
2021/06/21 03:45:00;;;;;;;6.07;4.88;;;;;;;20.84;49.23;99896.53;3578083;40;20045;-72
2021/06/21 03:47:29;;;;;;;5.32;4.38;;;;;;;20.85;48.95;99892.69;3573098;40;20391;-72
2021/06/21 03:49:57;;;;;;;5.93;4.70;;;;;;;20.86;48.70;99889.69;3577252;40;20048;-72
2021/06/21 03:52:25;;;;;;;4.65;4.07;;;;;;;20.87;48.82;99891.41;3579137;40;20056;-72
2021/06/21 03:55:06;;;;;;;5.43;4.40;;;;;;;20.89;49.13;99891.22;3575194;40;20062;-72
2021/06/21 03:57:38;;;;;;;5.55;4.57;;;;;;;20.93;49.14;99893.31;3577143;40;20053;-72
2021/06/21 04:00:12;;;;;;;6.20;4.82;;;;;;;20.97;50.06;99893.72;3577174;40;20134;-72
2021/06/21 04:02:41;;;;;;;5.70;4.60;;;;;;;20.95;48.71;99905.06;3574059;40;20044;-72
2021/06/21 04:05:10;;;;;;;6.32;5.07;;;;;;;20.97;48.97;99905.72;3577886;40;20099;-72
2021/06/21 04:07:40;;;;;;;6.53;5.70;;;;;;;20.97;49.11;99913.19;3564160;40;20053;-72
2021/06/21 04:10:11;;;;;;;5.63;4.70;;;;;;;21.00;49.05;99913.59;3576916;40;20052;-72
2021/06/21 04:12:41;;;;;;;7.53;4.90;;;;;;;20.99;49.34;99911.91;3579157;40;20029;-72
2021/06/21 04:15:12;;;;;;;7.32;5.30;;;;;;;21.00;49.23;99915.50;3575915;40;20287;-72
2021/06/21 04:18:02;;;;;;;6.22;4.75;;;;;;;20.99;49.03;99923.03;3573869;40;20113;-72
2021/06/21 04:20:50;;;;;;;6.55;4.85;;;;;;;20.97;49.21;99916.84;3578404;40;20053;-71
2021/06/21 04:23:38;;;;;;;6.05;4.65;;;;;;;20.97;49.29;99918.75;3577079;40;20053;-73
2021/06/21 04:26:26;;;;;;;5.40;4.07;;;;;;;20.97;48.71;99916.84;3574893;40;20033;-73
2021/06/21 04:29:15;;;;;;;6.40;4.85;;;;;;;21.01;48.87;99917.22;3573766;40;20045;-73
2021/06/21 04:32:09;;;;;;;6.40;5.10;;;;;;;20.99;49.02;99916.63;3576251;40;20084;-73
2021/06/21 04:34:57;;;;;;;5.65;4.28;;;;;;;21.00;49.47;99910.81;3574480;40;20055;-73
2021/06/21 04:37:46;;;;;;;6.28;4.45;;;;;;;21.01;48.86;99915.28;3577438;40;20056;-73
2021/06/21 04:40:36;;;;;;;4.97;4.20;;;;;;;21.03;49.32;99917.84;3577632;40;20049;-73
2021/06/21 04:43:24;;;;;;;4.70;4.15;;;;;;;21.02;48.95;99914.22;3577287;40;20049;-72
2021/06/21 04:46:14;;;;;;;5.13;3.80;;;;;;;21.03;48.86;99915.94;3578515;40;20061;-73
2021/06/21 04:49:04;;;;;;;5.32;3.97;;;;;;;21.01;49.17;99918.06;3575230;40;20165;-73
2021/06/21 04:51:52;;;;;;;4.63;3.85;;;;;;;21.01;49.33;99920.00;3578307;40;20068;-73
2021/06/21 04:54:41;;;;;;;5.38;3.95;;;;;;;21.00;49.06;99912.72;3574395;40;20602;-73
2021/06/21 04:57:29;;;;;;;4.93;3.58;;;;;;;20.99;48.48;99913.84;3577769;40;20053;-73
2021/06/21 05:00:19;;;;;;;5.63;4.28;;;;;;;21.01;49.17;99920.00;3576510;40;20079;-73
2021/06/21 05:03:09;;;;;;;7.53;3.95;;;;;;;20.99;48.86;99919.41;3575426;40;20484;-73
2021/06/21 05:05:57;;;;;;;5.10;3.85;;;;;;;20.96;48.57;99919.81;3573405;40;20035;-73
2021/06/21 05:08:26;;;;;;;6.22;3.75;;;;;;;20.95;48.57;99912.56;3577124;40;20059;-73
2021/06/21 05:10:55;;;;;;;5.93;3.88;;;;;;;20.93;49.02;99923.03;3574860;40;20055;-73
2021/06/21 05:13:43;;;;;;;6.63;4.22;;;;;;;20.89;49.17;99907.91;3576722;40;20066;-75
2021/06/21 05:16:32;;;;;;;6.85;5.22;;;;;;;20.88;49.25;99911.72;3573471;40;20093;-73
2021/06/21 05:19:21;;;;;;;5.47;4.70;;;;;;;20.88;49.15;99908.94;3575285;40;20045;-72
2021/06/21 05:22:09;;;;;;;8.90;5.47;;;;;;;20.84;49.08;99913.22;3575747;40;20060;-72
2021/06/21 05:24:59;;;;;;;6.97;6.07;;;;;;;20.84;49.79;99918.78;3572401;40;20119;-73
2021/06/21 05:27:47;;;;;;;7.55;5.65;;;;;;;20.82;49.66;99918.19;3577469;40;20064;-72
2021/06/21 05:30:35;;;;;;;7.95;5.70;;;;;;;20.83;49.36;99925.44;3576532;40;20072;-72
2021/06/21 05:33:25;;;;;;;5.72;4.25;;;;;;;20.83;49.32;99926.25;3576531;40;20064;-72
2021/06/21 05:36:15;;;;;;;5.72;4.28;;;;;;;20.85;49.43;99934.38;3576257;40;20061;-72
2021/06/21 05:39:03;;;;;;;5.45;4.80;;;;;;;20.84;49.42;99941.03;3568059;40;20058;-72
2021/06/21 05:41:51;;;;;;;4.75;4.13;;;;;;;20.84;49.18;99941.03;3578041;40;20332;-73
2021/06/21 05:44:39;;;;;;;6.20;4.90;;;;;;;20.85;49.44;99940.81;3578056;40;20128;-72
2021/06/21 05:47:27;;;;;;;5.78;4.60;;;;;;;20.87;49.04;99940.59;3575293;40;20055;-71
2021/06/21 05:50:15;;;;;;;5.10;4.00;;;;;;;20.89;49.16;99952.38;3569575;40;20057;-71
2021/06/21 05:53:05;;;;;;;5.78;4.40;;;;;;;20.90;48.96;99941.03;3577779;40;20341;-72
2021/06/21 05:55:53;;;;;;;5.55;5.03;;;;;;;20.91;49.05;99944.69;3575167;40;20037;-72
2021/06/21 05:58:41;;;;;;;5.80;5.20;;;;;;;20.91;48.95;99939.94;3578682;40;20053;-72
2021/06/21 06:01:29;;;;;;;5.75;5.13;;;;;;;20.91;49.10;99942.72;3577304;40;20051;-73
2021/06/21 06:04:17;;;;;;;4.63;3.97;;;;;;;20.91;49.26;99941.91;3578056;40;20367;-72
2021/06/21 06:07:06;;;;;;;5.63;4.90;;;;;;;20.91;48.74;99951.06;3573966;40;20332;-70
2021/06/21 06:09:57;;;;;;;6.63;5.82;;;;;;;20.92;49.00;99951.91;3574965;40;20061;-73
2021/06/21 06:12:25;;;;;;;6.72;5.95;;;;;;;20.91;49.02;99953.00;3576591;40;20041;-74
2021/06/21 06:14:53;;;;;;;5.63;5.05;;;;;;;20.90;49.11;99968.00;3575194;40;20428;-72
2021/06/21 06:17:21;;;;;;;6.57;5.65;;;;;;;20.88;48.84;99959.81;3571571;40;20064;-73
2021/06/21 06:19:50;;;;;;;7.22;5.88;;;;;;;20.86;48.86;99958.34;3574220;40;20045;-73
2021/06/21 06:22:18;;;;;;;6.68;5.72;;;;;;;20.85;48.84;99963.03;3575039;40;20055;-73
2021/06/21 06:24:46;;;;;;;6.32;5.70;;;;;;;20.84;48.92;99961.34;3574024;40;20409;-73
2021/06/21 06:27:16;;;;;;;7.78;6.97;;;;;;;20.84;49.41;99958.56;3574920;40;20126;-73
2021/06/21 06:29:44;;;;;;;7.35;6.60;;;;;;;20.80;49.15;99965.66;3573792;40;20278;-73
2021/06/21 06:32:12;;;;;;;7.20;6.45;;;;;;;20.78;48.87;99969.72;3574762;40;20060;-73
2021/06/21 06:34:41;;;;;;;7.72;6.93;;;;;;;20.76;49.10;99977.41;3574403;40;20438;-73
2021/06/21 06:37:11;;;;;;;7.38;6.68;;;;;;;20.74;48.77;99979.56;3573900;40;21401;-73
2021/06/21 06:39:40;;;;;;;7.85;7.05;;;;;;;20.73;49.01;99981.50;3576051;40;20049;-73
2021/06/21 06:42:10;;;;;;;7.68;6.88;;;;;;;20.70;48.71;99991.13;3573924;40;20057;-73
2021/06/21 06:44:39;;;;;;;7.50;6.75;;;;;;;20.70;48.89;99996.69;3573973;40;20335;-73
2021/06/21 06:47:08;;;;;;;7.00;6.15;;;;;;;20.67;49.08;99994.31;3574287;40;20083;-73
2021/06/21 06:49:38;;;;;;;8.02;7.25;;;;;;;20.67;49.05;99987.91;3578111;40;20061;-73
2021/06/21 06:52:10;;;;;;;8.50;7.38;;;;;;;20.64;48.91;99989.22;3575607;40;20382;-73
2021/06/21 06:54:48;;;;;;;7.47;6.72;;;;;;;20.64;48.94;99999.50;3574102;40;20057;-73
2021/06/21 06:57:15;;;;;;;7.63;6.82;;;;;;;20.62;48.84;99988.59;3575171;40;20059;-73
2021/06/21 07:00:23;;;;;;;8.35;6.90;;;;;;;20.62;49.09;99998.84;3576075;40;20409;-74
2021/06/21 07:02:51;;;;;;;8.45;6.97;;;;;;;20.58;49.16;100008.72;3575356;40;20318;-74
2021/06/21 07:05:19;;;;;;;7.35;6.65;;;;;;;20.58;48.74;100009.53;3572961;40;20126;-74
2021/06/21 07:07:48;;;;;;;7.35;6.63;;;;;;;20.58;48.78;100012.31;3575455;40;20470;-73
2021/06/21 07:10:17;;;;;;;9.40;8.48;;;;;;;20.58;48.89;100019.81;3576496;40;20041;-73
2021/06/21 07:12:45;;;;;;;9.50;8.50;;;;;;;20.58;48.91;100017.03;3574050;40;20037;-72
2021/06/21 07:15:15;;;;;;;8.65;7.35;;;;;;;20.57;48.87;100018.13;3575486;40;20052;-73
2021/06/21 07:17:44;;;;;;;9.00;7.55;;;;;;;20.58;48.52;100014.25;3573169;40;20419;-73
2021/06/21 07:20:13;;;;;;;8.73;7.82;;;;;;;20.56;48.88;100024.75;3574433;40;20064;-72
2021/06/21 07:22:42;;;;;;;9.25;7.95;;;;;;;20.54;49.30;100018.53;3572932;40;20045;-73
2021/06/21 07:25:12;;;;;;;9.90;8.85;;;;;;;20.53;48.44;100023.25;3572738;40;20052;-73
2021/06/21 07:27:41;;;;;;;8.52;7.53;;;;;;;20.51;48.53;100030.06;3574517;40;20422;-73
2021/06/21 07:30:11;;;;;;;9.30;7.20;;;;;;;20.51;48.20;100030.06;3572263;40;20105;-72
2021/06/21 07:32:40;;;;;;;10.45;8.73;;;;;;;20.48;48.30;100031.38;3573017;40;20052;-73
2021/06/21 07:35:11;;;;;;;8.98;7.57;;;;;;;20.49;48.51;100044.22;3573067;40;20053;-72
2021/06/21 07:37:39;;;;;;;11.60;9.43;;;;;;;20.44;48.80;100035.66;3576074;40;20045;-71
2021/06/21 07:40:08;;;;;;;12.52;10.30;;;;;;;20.44;48.38;100035.66;3576108;40;20053;-74
2021/06/21 07:42:37;;;;;;;12.27;9.38;;;;;;;20.42;48.58;100046.13;3572172;40;20397;-72
2021/06/21 07:45:07;;;;;;;12.38;10.32;;;;;;;20.41;48.84;100038.88;3575933;40;20405;-73
2021/06/21 07:47:35;;;;;;;16.33;12.02;;;;;;;20.38;48.24;100039.31;3576515;40;20052;-72
2021/06/21 07:50:04;;;;;;;19.65;13.88;;;;;;;20.39;48.59;100045.72;3574475;40;20060;-78
2021/06/21 07:52:34;;;;;;;18.75;14.18;;;;;;;20.39;48.93;100042.94;3577282;40;20053;-73
2021/06/21 07:55:03;;;;;;;16.23;12.40;;;;;;;20.38;48.76;100058.75;3573785;40;20064;-73
2021/06/21 07:57:32;;;;;;;17.48;13.13;;;;;;;20.39;48.59;100054.06;3573255;40;20396;-73
2021/06/21 08:00:00;;;;;;;18.60;14.02;;;;;;;20.39;48.82;100052.13;3575057;40;20093;-73
2021/06/21 08:02:39;;;;;;;17.98;13.00;;;;;;;20.40;48.94;100047.44;3576032;40;20130;-72
2021/06/21 08:05:08;;;;;;;18.23;11.98;;;;;;;20.43;48.83;100049.75;3577508;40;20054;-72
2021/06/21 08:07:38;;;;;;;19.60;12.73;;;;;;;20.46;48.89;100060.44;3575714;40;20441;-73
2021/06/21 08:10:07;;;;;;;14.57;10.23;;;;;;;20.47;49.12;100053.81;3578465;40;20052;-72
2021/06/21 08:12:36;;;;;;;15.60;10.80;;;;;;;20.48;48.91;100063.88;3576782;40;20037;-73
2021/06/21 08:15:07;;;;;;;15.70;10.40;;;;;;;20.50;48.36;100070.91;3577520;40;20044;-73
2021/06/21 08:17:35;;;;;;;16.80;11.65;;;;;;;20.51;48.70;100078.16;3576327;40;20045;-72
2021/06/21 08:20:05;;;;;;;14.90;9.90;;;;;;;20.53;48.56;100077.94;3578126;40;20064;-72
2021/06/21 08:22:33;;;;;;;13.38;10.10;;;;;;;20.54;48.34;100079.66;3576356;40;20060;-72
2021/06/21 08:25:05;;;;;;;12.95;9.90;;;;;;;20.56;48.00;100095.06;3576551;40;20045;-72
2021/06/21 08:27:34;;;;;;;13.93;9.23;;;;;;;20.53;48.29;100097.41;3576734;40;20041;-73
2021/06/21 08:30:06;;;;;;;13.85;9.60;;;;;;;20.54;48.31;100094.41;3577026;40;20049;-72
2021/06/21 08:32:35;;;;;;;12.77;9.35;;;;;;;20.52;47.68;100101.25;3577702;40;20065;-73
2021/06/21 08:35:04;;;;;;;11.13;8.20;;;;;;;20.51;47.86;100105.94;3576286;40;20073;-73
2021/06/21 08:37:33;;;;;;;12.35;8.35;;;;;;;20.49;48.10;100107.25;3576013;40;20388;-72
2021/06/21 08:40:07;;;;;;;10.50;7.78;;;;;;;20.49;47.52;100113.66;3577955;40;20055;-72
2021/06/21 08:42:37;;;;;;;10.23;7.80;;;;;;;20.46;47.51;100110.44;3573617;40;20057;-72
2021/06/21 08:45:08;;;;;;;10.98;7.07;;;;;;;20.46;47.59;100111.31;3576117;40;20053;-72
2021/06/21 08:47:37;;;;;;;9.98;7.22;;;;;;;20.45;47.48;100115.16;3575404;40;20138;-72
2021/06/21 08:50:07;;;;;;;10.45;6.78;;;;;;;20.48;48.08;100119.44;3577948;40;20045;-72
2021/06/21 08:52:36;;;;;;;10.40;6.45;;;;;;;20.46;47.60;100121.56;3576123;40;20081;-72
2021/06/21 08:55:07;;;;;;;9.65;6.35;;;;;;;20.47;47.31;100120.50;3578430;40;20434;-75
2021/06/21 08:57:37;;;;;;;8.73;5.75;;;;;;;20.45;47.83;100133.75;3575787;40;20185;-73
2021/06/21 09:00:08;;;;;;;7.80;5.50;;;;;;;20.46;47.50;100136.31;3576920;40;20052;-72
2021/06/21 09:02:36;;;;;;;7.25;5.00;;;;;;;20.44;47.11;100135.66;3575390;40;20041;-72
2021/06/21 09:05:07;;;;;;;8.10;5.35;;;;;;;20.46;47.28;100132.69;3575272;40;20134;-71
2021/06/21 09:07:35;;;;;;;7.05;4.70;;;;;;;20.43;46.81;100136.72;3576118;40;20078;-72
2021/06/21 09:10:10;;;;;;;6.45;4.35;;;;;;;20.44;47.23;100143.16;3577101;40;20045;-72
2021/06/21 09:12:39;;;;;;;5.75;3.97;;;;;;;20.40;47.13;100142.72;3576308;40;20049;-74
2021/06/21 09:15:09;;;;;;;5.38;3.70;;;;;;;20.40;46.98;100148.28;3574676;40;20064;-75
2021/06/21 09:17:39;;;;;;;5.47;3.05;;;;;;;20.37;46.55;100148.72;3574433;40;20321;-74
2021/06/21 09:20:12;;;;;;;4.50;3.10;;;;;;;20.36;46.37;100158.09;3575757;40;20090;-72
2021/06/21 09:22:41;;;;;;;;;;;;;;;20.04;47.01;100164.44;3578032;40;20052;-72
2021/06/21 09:25:25;;;;;;;4.18;2.97;;;;;;;20.26;46.28;100182.66;3576997;40;19929;-72
2021/06/21 09:27:56;;;;;;;3.08;2.10;;;;;;;20.25;46.29;100187.34;3574367;40;20049;-74
2021/06/21 09:30:25;;;;;;;3.72;2.03;;;;;;;20.24;46.24;100194.00;3575454;40;20309;-74
2021/06/21 09:32:56;;;;;;;3.55;2.03;;;;;;;20.22;46.86;100203.59;3574491;40;20138;-74
2021/06/21 09:35:42;;;;;;;2.92;1.88;;;;;;;20.19;46.34;100218.72;3576988;40;20070;-74
2021/06/21 09:38:17;;;;;;;2.97;1.73;;;;;;;20.20;46.41;100214.03;3573994;40;20060;-74
2021/06/21 09:40:51;;;;;;;2.45;1.35;;;;;;;20.16;46.32;100224.72;3574388;40;20087;-74
2021/06/21 09:43:23;;;;;;;1.38;0.90;;;;;;;20.12;46.29;100228.13;3578313;40;20130;-75
2021/06/21 09:46:05;;;;;;;0.70;0.52;;;;;;;20.10;45.79;100230.25;3575811;40;20052;-72
2021/06/21 09:48:38;;;;;;;0.70;0.50;;;;;;;20.05;45.80;100232.81;3577067;40;20067;-72
2021/06/21 09:51:25;;;;;;;1.10;0.50;;;;;;;20.02;45.93;100235.97;3575760;40;20077;-74
2021/06/21 09:54:00;;;;;;;0.57;0.40;;;;;;;20.00;46.42;100238.13;3573897;40;20056;-72
2021/06/21 09:56:48;;;;;;;0.40;0.30;;;;;;;19.96;45.73;100234.91;3573939;40;20305;-73
2021/06/21 09:59:22;;;;;;;0.82;0.32;;;;;;;19.94;46.52;100242.59;3573720;40;21315;-73
2021/06/21 10:02:08;;;;;;;1.08;0.30;;;;;;;19.95;46.11;100259.03;3577414;40;20333;-73
2021/06/21 10:04:39;;;;;;;0.28;0.25;;;;;;;19.93;46.08;100244.50;3574008;40;20041;-73
2021/06/21 10:07:26;;;;;;;0.52;0.30;;;;;;;19.94;46.05;100250.91;3573276;40;20079;-72
2021/06/21 10:09:57;;;;;;;0.22;0.20;;;;;;;19.93;46.60;100250.06;3575107;40;20080;-72
2021/06/21 10:12:28;;;;;;;0.22;0.20;;;;;;;19.95;46.27;100252.63;3577957;40;20103;-72
2021/06/21 10:14:57;;;;;;;0.90;0.40;;;;;;;19.94;45.95;100256.47;3576949;40;20049;-73
2021/06/21 10:17:26;;;;;;;0.20;0.20;;;;;;;19.93;45.62;100257.53;3574696;40;20089;-72
2021/06/21 10:19:55;;;;;;;0.25;0.10;;;;;;;19.93;46.30;100265.84;3574509;40;20051;-73
2021/06/21 10:22:27;;;;;;;0.43;0.30;;;;;;;19.93;45.74;100277.81;3576551;40;20056;-73
2021/06/21 10:24:57;;;;;;;0.32;0.10;;;;;;;19.92;46.00;100281.66;3577918;40;20056;-73
2021/06/21 10:27:30;;;;;;;0.30;0.10;;;;;;;19.93;45.84;100286.16;3575268;40;20064;-73
2021/06/21 10:29:58;;;;;;;;;;;;;;;19.62;46.44;100291.34;3576302;40;20056;-73
2021/06/21 10:32:28;;;;;;;0.25;0.25;;;;;;;19.84;45.72;100308.75;3576193;40;20207;-74
2021/06/21 10:34:57;;;;;;;0.43;0.30;;;;;;;19.84;45.77;100304.03;3573987;40;20048;-73
2021/06/21 10:37:27;;;;;;;0.30;0.30;;;;;;;19.85;45.60;100305.75;3576161;40;20084;-73
2021/06/21 10:40:01;;;;;;;0.45;0.22;;;;;;;19.85;45.95;100316.84;3572191;40;20051;-74
2021/06/21 10:42:35;;;;;;;0.25;0.20;;;;;;;19.84;45.66;100323.47;3576393;40;20425;-73
2021/06/21 10:45:05;;;;;;;1.15;0.30;;;;;;;19.84;45.60;100322.63;3575757;40;20045;-74
2021/06/21 10:47:39;;;;;;;0.28;0.20;;;;;;;19.86;45.05;100326.91;3576524;40;20070;-73
2021/06/21 10:50:10;;;;;;;0.20;0.20;;;;;;;19.85;45.67;100335.44;3572407;40;20051;-73
2021/06/21 10:52:48;;;;;;;1.20;0.20;;;;;;;19.86;45.03;100343.56;3577176;40;20049;-73
2021/06/21 10:55:37;;;;;;;0.90;0.40;;;;;;;19.84;44.89;100347.63;3572711;40;20049;-73
2021/06/21 10:58:26;;;;;;;0.30;0.28;;;;;;;19.84;45.46;100359.56;3576277;40;20069;-73
2021/06/21 11:00:56;;;;;;;0.50;0.30;;;;;;;19.81;45.21;100365.53;3573474;40;20081;-75
2021/06/21 11:03:37;;;;;;;0.32;0.20;;;;;;;19.84;44.57;100364.28;3576488;40;20088;-73
2021/06/21 11:06:07;;;;;;;0.20;0.20;;;;;;;19.83;45.58;100376.44;3576292;40;20049;-74
2021/06/21 11:08:45;;;;;;;0.35;0.22;;;;;;;19.83;45.18;100384.75;3576596;40;20059;-73
2021/06/21 11:11:49;;;;;;;0.30;0.30;;;;;;;19.74;44.70;100391.53;3575873;40;20061;-74
2021/06/21 11:14:23;;;;;;;0.65;0.20;;;;;;;19.77;44.63;100405.84;3555604;40;20059;-72
2021/06/21 11:16:52;;;;;;;0.77;0.55;;;;;;;19.75;44.98;100405.22;3575829;40;20040;-72
2021/06/21 11:19:28;;;;;;;0.93;0.35;;;;;;;19.77;44.81;100410.53;3576550;40;20049;-73
2021/06/21 11:21:59;;;;;;;0.35;0.35;;;;;;;19.74;44.63;100410.97;3573313;40;20057;-73
2021/06/21 11:24:47;;;;;;;0.82;0.60;;;;;;;19.70;44.53;100412.41;3571053;40;20314;-73
2021/06/21 11:27:17;;;;;;;1.30;0.65;;;;;;;19.68;44.79;100420.94;3575282;40;20091;-72
2021/06/21 11:29:48;;;;;;;1.40;0.68;;;;;;;19.66;44.45;100420.31;3577519;40;20069;-72
2021/06/21 11:32:18;;;;;;;0.50;0.50;;;;;;;19.61;44.43;100438.59;3578910;40;20061;-73
2021/06/21 11:34:49;;;;;;;0.77;0.70;;;;;;;19.61;44.14;100441.38;3577971;40;20093;-73
2021/06/21 11:37:35;;;;;;;1.00;0.70;;;;;;;19.58;44.21;100442.66;3575848;40;20061;-73
2021/06/21 11:40:30;;;;;;;0.65;0.50;;;;;;;19.57;44.69;100452.03;3576501;40;20088;-73
2021/06/21 11:43:17;;;;;;;1.08;0.65;;;;;;;19.56;44.57;100453.09;3571827;40;20433;-73
2021/06/21 11:45:55;;;;;;;0.77;0.60;;;;;;;19.56;44.61;100456.72;3575064;40;20049;-74
2021/06/21 11:48:32;;;;;;;1.08;0.50;;;;;;;19.59;44.60;100468.47;3576652;40;20045;-73
2021/06/21 11:51:02;;;;;;;1.58;0.60;;;;;;;19.55;44.38;100471.66;3577515;40;20390;-73
2021/06/21 11:53:31;;;;;;;0.80;0.50;;;;;;;19.55;44.15;100479.97;3576544;40;20048;-74
2021/06/21 11:55:59;;;;;;;1.23;0.50;;;;;;;19.55;44.02;100488.28;3575775;40;20053;-75
2021/06/21 11:58:30;;;;;;;0.60;0.50;;;;;;;19.58;44.68;100481.50;3578393;40;20088;-73
2021/06/21 12:01:01;;;;;;;0.90;0.60;;;;;;;19.59;44.27;100482.34;3577386;40;20135;-74
2021/06/21 12:03:31;;;;;;;0.90;0.77;;;;;;;19.59;44.57;100494.31;3577674;40;20127;-75
2021/06/21 12:06:01;;;;;;;0.98;0.90;;;;;;;19.58;44.57;100495.38;3577001;40;20063;-76
2021/06/21 12:08:35;;;;;;;0.85;0.80;;;;;;;19.60;43.78;100498.78;3576674;40;20049;-76
2021/06/21 12:11:12;;;;;;;1.20;0.80;;;;;;;19.60;44.01;100497.91;3577494;40;20061;-75